MGL231 ZMCK-UIII
Flight info
| Callsign | MGL231 |
|---|---|
| Flight time | N/A |
| Altitude | 29000 |
| Route | TATIG2B TATIG Y345 SERNA/K0783F290 A815 IDENI IDENI4B |
| Aircraft | CRJ7/M-SDFGIRWY/S |
Departure
| Time | 2026-04-20 22:59 |
|---|---|
| Airport | Ulaanbaatar Chinggis Khaan International Airport (ZMCK) |
Arrival
| Time | N/A |
|---|---|
| Airport | Irkutsk International Airport (UIII) |
| Time | Latitude | Longitude | Altitude | Speed | Heading |
|---|---|---|---|---|---|
| 2026-04-20 22:21 | 47.65050 | 106.81885 | 4500 ft | 0 kts | 284° |
| 2026-04-20 22:53 | 47.65052 | 106.81857 | 4501 ft | 4 kts | 250° |
| 2026-04-20 22:53 | 47.65019 | 106.81825 | 4501 ft | 6 kts | 195° |
| 2026-04-20 22:53 | 47.64998 | 106.81780 | 4505 ft | 8 kts | 281° |
| 2026-04-20 22:54 | 47.65016 | 106.81663 | 4501 ft | 14 kts | 274° |
| 2026-04-20 22:54 | 47.64976 | 106.81520 | 4498 ft | 16 kts | 244° |
| 2026-04-20 22:54 | 47.64982 | 106.81352 | 4493 ft | 18 kts | 285° |
| 2026-04-20 22:54 | 47.65014 | 106.81174 | 4493 ft | 17 kts | 283° |
| 2026-04-20 22:55 | 47.65043 | 106.81008 | 4495 ft | 16 kts | 283° |
| 2026-04-20 22:55 | 47.65073 | 106.80840 | 4492 ft | 17 kts | 285° |
| 2026-04-20 22:55 | 47.65105 | 106.80659 | 4491 ft | 19 kts | 285° |
| 2026-04-20 22:55 | 47.65138 | 106.80472 | 4492 ft | 18 kts | 283° |
| 2026-04-20 22:56 | 47.65168 | 106.80297 | 4492 ft | 18 kts | 280° |
| 2026-04-20 22:56 | 47.65200 | 106.80110 | 4494 ft | 20 kts | 284° |
| 2026-04-20 22:56 | 47.65235 | 106.79909 | 4492 ft | 20 kts | 284° |
| 2026-04-20 22:56 | 47.65229 | 106.79760 | 4493 ft | 13 kts | 230° |
| 2026-04-20 22:57 | 47.65151 | 106.79711 | 4494 ft | 12 kts | 193° |
| 2026-04-20 22:57 | 47.65093 | 106.79731 | 4496 ft | 6 kts | 130° |
| 2026-04-20 22:57 | 47.65087 | 106.79753 | 4496 ft | 0 kts | 103° |
| 2026-04-20 22:58 | 47.65053 | 106.79952 | 4494 ft | 49 kts | 105° |
| 2026-04-20 22:58 | 47.64911 | 106.80750 | 4491 ft | 109 kts | 104° |
| 2026-04-20 22:58 | 47.64679 | 106.82073 | 4495 ft | 155 kts | 104° |
| 2026-04-20 22:59 | 47.64382 | 106.83747 | 4662 ft | 175 kts | 107° |
| 2026-04-20 22:59 | 47.63993 | 106.85505 | 5160 ft | 182 kts | 111° |
| 2026-04-20 22:59 | 47.63507 | 106.87264 | 5756 ft | 188 kts | 112° |
| 2026-04-20 22:59 | 47.62963 | 106.89081 | 6200 ft | 199 kts | 112° |
| 2026-04-20 23:00 | 47.62250 | 106.90906 | 6629 ft | 211 kts | 135° |
| 2026-04-20 23:00 | 47.60962 | 106.91805 | 6905 ft | 209 kts | 180° |
| 2026-04-20 23:00 | 47.59591 | 106.91303 | 7156 ft | 202 kts | 221° |
| 2026-04-20 23:00 | 47.58649 | 106.89630 | 7034 ft | 229 kts | 255° |
| 2026-04-20 23:01 | 47.58613 | 106.87281 | 7351 ft | 234 kts | 295° |
| 2026-04-20 23:01 | 47.59701 | 106.85605 | 8049 ft | 231 kts | 335° |
| 2026-04-20 23:01 | 47.61293 | 106.85051 | 8603 ft | 240 kts | 349° |
| 2026-04-20 23:01 | 47.63000 | 106.84796 | 9032 ft | 253 kts | 351° |
| 2026-04-20 23:02 | 47.64733 | 106.84636 | 9903 ft | 245 kts | 353° |
| 2026-04-20 23:02 | 47.66421 | 106.84629 | 10627 ft | 243 kts | 355° |
| 2026-04-20 23:02 | 47.68122 | 106.84810 | 11201 ft | 247 kts | 359° |
| 2026-04-20 23:02 | 47.69839 | 106.85169 | 11705 ft | 252 kts | 3° |
| 2026-04-20 23:03 | 47.71540 | 106.85696 | 12312 ft | 253 kts | 5° |
| 2026-04-20 23:03 | 47.73293 | 106.86336 | 12414 ft | 266 kts | 6° |
| 2026-04-20 23:03 | 47.75128 | 106.87024 | 12387 ft | 276 kts | 6° |
| 2026-04-20 23:03 | 47.76982 | 106.87378 | 12692 ft | 260 kts | 352° |
| 2026-04-20 23:04 | 47.78744 | 106.86946 | 12726 ft | 254 kts | 334° |
| 2026-04-20 23:04 | 47.80266 | 106.85711 | 12752 ft | 251 kts | 318° |
| 2026-04-20 23:04 | 47.81615 | 106.83945 | 12447 ft | 265 kts | 313° |
| 2026-04-20 23:04 | 47.82890 | 106.81930 | 12086 ft | 270 kts | 308° |
| 2026-04-20 23:05 | 47.84055 | 106.79693 | 11604 ft | 279 kts | 305° |
| 2026-04-20 23:05 | 47.85167 | 106.77296 | 11106 ft | 282 kts | 303° |
| 2026-04-20 23:05 | 47.86193 | 106.74790 | 10544 ft | 285 kts | 297° |
| 2026-04-20 23:05 | 47.86699 | 106.71891 | 9785 ft | 298 kts | 276° |
| 2026-04-20 23:06 | 47.86363 | 106.68798 | 9064 ft | 311 kts | 253° |
| 2026-04-20 23:06 | 47.85238 | 106.66065 | 8816 ft | 308 kts | 234° |
| 2026-04-20 23:06 | 47.83723 | 106.63900 | 8797 ft | 298 kts | 226° |
| 2026-04-20 23:06 | 47.82149 | 106.61953 | 8679 ft | 297 kts | 225° |
| 2026-04-20 23:07 | 47.80550 | 106.59997 | 8452 ft | 298 kts | 224° |
| 2026-04-20 23:07 | 47.78913 | 106.58090 | 8195 ft | 303 kts | 218° |
| 2026-04-20 23:07 | 47.76980 | 106.56768 | 8064 ft | 309 kts | 198° |
| 2026-04-20 23:07 | 47.74829 | 106.56650 | 7923 ft | 315 kts | 172° |
| 2026-04-20 23:08 | 47.72819 | 106.57980 | 7626 ft | 322 kts | 142° |
| 2026-04-20 23:08 | 47.71270 | 106.60355 | 7518 ft | 317 kts | 130° |
| 2026-04-20 23:08 | 47.69831 | 106.62824 | 7160 ft | 317 kts | 130° |
| 2026-04-20 23:08 | 47.68407 | 106.65323 | 6693 ft | 313 kts | 128° |
| 2026-04-20 23:09 | 47.67271 | 106.67922 | 6196 ft | 289 kts | 114° |
| 2026-04-20 23:09 | 47.66631 | 106.70634 | 5668 ft | 268 kts | 103° |
| 2026-04-20 23:09 | 47.66227 | 106.73001 | 5811 ft | 199 kts | 102° |
| 2026-04-20 23:09 | 47.65912 | 106.74830 | 5269 ft | 172 kts | 103° |
| 2026-04-20 23:10 | 47.65763 | 106.75868 | 5036 ft | 154 kts | 103° |
| 2026-04-20 23:10 | 47.65524 | 106.77304 | 4753 ft | 148 kts | 107° |
| 2026-04-20 23:10 | 47.65264 | 106.78754 | 4629 ft | 142 kts | 105° |
| 2026-04-20 23:10 | 47.65018 | 106.80145 | 4497 ft | 133 kts | 106° |
| 2026-04-20 23:11 | 47.64821 | 106.81266 | 4495 ft | 90 kts | 103° |
| 2026-04-20 23:11 | 47.64720 | 106.81824 | 4493 ft | 27 kts | 107° |
| 2026-04-20 23:11 | 47.64713 | 106.81978 | 4493 ft | 12 kts | 60° |
| 2026-04-20 23:11 | 47.64782 | 106.82026 | 4493 ft | 9 kts | 14° |
| 2026-04-20 23:12 | 47.64829 | 106.82045 | 4496 ft | 6 kts | 15° |
| 2026-04-20 23:12 | 47.64895 | 106.82071 | 4501 ft | 14 kts | 14° |
| 2026-04-20 23:12 | 47.64961 | 106.81993 | 4501 ft | 15 kts | 285° |
| 2026-04-20 23:12 | 47.64984 | 106.81908 | 4502 ft | 4 kts | 338° |
| 2026-04-20 23:13 | 47.65016 | 106.81915 | 4502 ft | 7 kts | 17° |
| 2026-04-20 23:13 | 47.65046 | 106.81908 | 4504 ft | 3 kts | 294° |
| 2026-04-20 23:13 | 47.65050 | 106.81886 | 4500 ft | 1 kts | 285° |
| 2026-04-20 23:13 | 47.65050 | 106.81885 | 4500 ft | 0 kts | 285° |